Time;durP1;ratioP1;P1;durP2;ratioP2;P2;SDS_P1;SDS_P2;PMS_P1;PMS_P2;Temp;Humidity;BMP_temperature;BMP_pressure;BME280_temperature;BME280_humidity;BME280_pressure;Samples;Min_cycle;Max_cycle;Signal;HPM_P1;HPM_P2
2023/04/25 00:01:19;;;;;;;13.20;12.50;;;;;;;;;;5045657;28;20059;-64
2023/04/25 00:03:44;;;;;;;12.90;12.30;;;;;;;;;;5049940;28;20033;-62
2023/04/25 00:06:10;;;;;;;13.70;12.93;;;;;;;;;;5053874;28;20021;-64
2023/04/25 00:08:35;;;;;;;12.63;12.02;;;;;;;;;;5049872;28;20104;-63
2023/04/25 00:11:01;;;;;;;13.15;12.45;;;;;;;;;;5049770;28;20029;-63
2023/04/25 00:13:26;;;;;;;13.35;12.65;;;;;;;;;;5050935;28;20063;-63
2023/04/25 00:15:52;;;;;;;13.13;12.43;;;;;;;;;;5051316;28;20082;-63
2023/04/25 00:18:18;;;;;;;13.75;12.98;;;;;;;;;;5048759;28;20518;-62
2023/04/25 00:20:46;;;;;;;12.90;12.30;;;;;;;;;;5051042;28;20116;-62
2023/04/25 00:23:12;;;;;;;13.35;12.65;;;;;;;;;;5046885;28;20578;-64
2023/04/25 00:25:37;;;;;;;13.13;12.43;;;;;;;;;;5060244;28;20026;-62
2023/04/25 00:28:03;;;;;;;12.70;12.10;;;;;;;;;;5053351;28;20092;-62
2023/04/25 00:30:28;;;;;;;12.65;12.05;;;;;;;;;;5054145;28;20029;-64
2023/04/25 00:32:54;;;;;;;12.70;12.10;;;;;;;;;;5050502;28;20028;-63
2023/04/25 00:35:19;;;;;;;14.00;13.20;;;;;;;;;;5048570;28;20075;-63
2023/04/25 00:37:45;;;;;;;13.15;12.45;;;;;;;;;;5051034;28;20559;-63
2023/04/25 00:40:10;;;;;;;12.95;12.35;;;;;;;;;;5050157;28;20025;-63
2023/04/25 00:42:36;;;;;;;12.52;11.93;;;;;;;;;;5049460;28;20063;-63
2023/04/25 00:45:04;;;;;;;13.65;12.95;;;;;;;;;;5048833;28;20024;-63
2023/04/25 00:47:29;;;;;;;13.52;12.82;;;;;;;;;;5050222;28;20021;-64
2023/04/25 00:49:57;;;;;;;13.52;12.82;;;;;;;;;;5042269;28;20477;-63
2023/04/25 00:52:22;;;;;;;13.13;12.43;;;;;;;;;;5050357;28;20040;-63
2023/04/25 00:54:47;;;;;;;12.85;12.25;;;;;;;;;;5047171;28;20025;-63
2023/04/25 00:57:13;;;;;;;12.80;12.20;;;;;;;;;;5049901;28;20044;-63
2023/04/25 00:59:38;;;;;;;13.45;12.75;;;;;;;;;;5052158;28;20469;-63
2023/04/25 01:02:04;;;;;;;13.20;12.50;;;;;;;;;;5044326;28;20071;-63
2023/04/25 01:04:29;;;;;;;13.43;12.73;;;;;;;;;;5045383;28;20395;-63
2023/04/25 01:06:55;;;;;;;13.45;12.75;;;;;;;;;;5049391;28;20013;-62
2023/04/25 01:09:21;;;;;;;14.05;13.25;;;;;;;;;;5044788;28;20112;-62
2023/04/25 01:11:47;;;;;;;13.73;12.93;;;;;;;;;;5051814;28;20021;-62
2023/04/25 01:14:12;;;;;;;13.55;12.85;;;;;;;;;;5045838;28;20088;-62
2023/04/25 01:16:38;;;;;;;13.13;12.43;;;;;;;;;;5050686;28;20049;-62
2023/04/25 01:19:08;;;;;;;13.23;12.52;;;;;;;;;;5048103;28;20529;-62
2023/04/25 01:21:33;;;;;;;13.35;12.65;;;;;;;;;;5048095;28;20017;-62
2023/04/25 01:23:59;;;;;;;13.00;12.32;;;;;;;;;;5051012;28;20442;-63
2023/04/25 01:26:24;;;;;;;13.75;12.95;;;;;;;;;;5046152;28;20096;-63
2023/04/25 01:28:50;;;;;;;13.32;12.63;;;;;;;;;;5048049;28;20021;-63
2023/04/25 01:31:15;;;;;;;12.75;12.15;;;;;;;;;;5048011;28;20116;-62
2023/04/25 01:33:40;;;;;;;12.73;12.13;;;;;;;;;;5045060;28;20111;-63
2023/04/25 01:36:06;;;;;;;13.50;12.80;;;;;;;;;;5036460;28;20073;-63
2023/04/25 01:38:31;;;;;;;13.25;12.55;;;;;;;;;;5041778;28;20025;-62
2023/04/25 01:40:57;;;;;;;13.43;12.73;;;;;;;;;;5047953;28;20029;-63
2023/04/25 01:43:23;;;;;;;12.73;12.13;;;;;;;;;;5046370;28;20028;-62
2023/04/25 01:45:49;;;;;;;14.73;13.82;;;;;;;;;;5048326;28;20021;-64
2023/04/25 01:48:15;;;;;;;13.23;12.60;;;;;;;;;;5048138;28;20028;-62
2023/04/25 01:50:40;;;;;;;13.77;13.02;;;;;;;;;;5048536;28;20044;-64
2023/04/25 01:53:06;;;;;;;13.50;12.80;;;;;;;;;;5047069;28;20023;-63
2023/04/25 01:55:31;;;;;;;13.25;12.55;;;;;;;;;;5046929;28;20059;-63
2023/04/25 01:57:56;;;;;;;13.10;12.40;;;;;;;;;;5051475;28;20025;-63
2023/04/25 02:00:22;;;;;;;13.95;13.15;;;;;;;;;;5047806;28;20033;-64
2023/04/25 02:02:48;;;;;;;14.30;13.50;;;;;;;;;;5043722;28;20032;-64
2023/04/25 02:05:13;;;;;;;13.00;12.40;;;;;;;;;;5051275;28;20140;-63
2023/04/25 02:07:39;;;;;;;14.10;13.30;;;;;;;;;;5043231;28;20636;-63
2023/04/25 02:10:04;;;;;;;13.52;12.82;;;;;;;;;;5044364;28;20027;-63
2023/04/25 02:12:30;;;;;;;12.13;11.60;;;;;;;;;;5047674;28;20071;-63
2023/04/25 02:14:56;;;;;;;13.30;12.60;;;;;;;;;;5039694;28;20144;-63
2023/04/25 02:17:21;;;;;;;14.10;13.30;;;;;;;;;;5043940;28;20036;-63
2023/04/25 02:19:47;;;;;;;13.68;12.95;;;;;;;;;;5049819;28;20021;-63
2023/04/25 02:22:12;;;;;;;13.25;12.55;;;;;;;;;;5050494;28;20107;-62
2023/04/25 02:24:38;;;;;;;12.80;12.20;;;;;;;;;;5050310;28;20029;-62
2023/04/25 02:27:03;;;;;;;13.45;12.75;;;;;;;;;;5055626;28;20025;-63
2023/04/25 02:29:29;;;;;;;13.00;12.30;;;;;;;;;;5053054;28;20025;-63
2023/04/25 02:31:54;;;;;;;13.63;12.88;;;;;;;;;;5056478;28;20297;-63
2023/04/25 02:34:20;;;;;;;12.75;12.15;;;;;;;;;;5052499;28;20029;-64
2023/04/25 02:36:45;;;;;;;13.13;12.43;;;;;;;;;;5046500;28;20029;-62
2023/04/25 02:39:11;;;;;;;13.73;12.98;;;;;;;;;;5047809;28;20028;-63
2023/04/25 02:41:36;;;;;;;12.88;12.27;;;;;;;;;;5063480;28;20033;-63
2023/04/25 02:44:02;;;;;;;14.48;13.57;;;;;;;;;;5051666;28;20071;-63
2023/04/25 02:46:27;;;;;;;13.32;12.63;;;;;;;;;;5047671;28;20029;-63
2023/04/25 02:48:52;;;;;;;14.40;13.60;;;;;;;;;;5052227;28;20357;-64
2023/04/25 02:51:17;;;;;;;13.20;12.50;;;;;;;;;;5054254;28;20155;-63
2023/04/25 02:53:43;;;;;;;12.88;12.23;;;;;;;;;;5050769;28;20077;-63
2023/04/25 02:56:08;;;;;;;13.73;13.00;;;;;;;;;;5055267;28;20016;-64
2023/04/25 02:58:34;;;;;;;12.98;12.30;;;;;;;;;;5054765;28;20025;-63
2023/04/25 03:01:00;;;;;;;13.80;13.00;;;;;;;;;;5054833;28;20062;-63
2023/04/25 03:03:25;;;;;;;12.68;12.05;;;;;;;;;;5050691;28;20483;-63
2023/04/25 03:05:51;;;;;;;14.38;13.52;;;;;;;;;;5035609;28;20108;-63
2023/04/25 03:08:16;;;;;;;12.73;12.02;;;;;;;;;;5044487;28;20060;-63
2023/04/25 03:10:42;;;;;;;13.27;12.57;;;;;;;;;;5050017;28;20029;-63
2023/04/25 03:13:07;;;;;;;13.38;12.68;;;;;;;;;;5050557;28;20009;-63
2023/04/25 03:15:32;;;;;;;12.45;11.85;;;;;;;;;;5053731;28;20082;-63
2023/04/25 03:17:58;;;;;;;12.50;11.90;;;;;;;;;;5049945;28;20408;-63
2023/04/25 03:20:24;;;;;;;12.85;12.25;;;;;;;;;;5047341;28;20029;-63
2023/04/25 03:22:50;;;;;;;13.38;12.68;;;;;;;;;;5051569;28;20032;-63
2023/04/25 03:25:15;;;;;;;13.13;12.43;;;;;;;;;;5048515;28;20025;-63
2023/04/25 03:27:41;;;;;;;12.50;11.90;;;;;;;;;;5052716;28;20016;-63
2023/04/25 03:30:07;;;;;;;13.00;12.30;;;;;;;;;;5045348;28;20075;-63
2023/04/25 03:32:33;;;;;;;13.45;12.75;;;;;;;;;;5050381;28;20017;-63
2023/04/25 03:34:58;;;;;;;13.07;12.38;;;;;;;;;;5049967;28;20032;-63
2023/04/25 03:37:23;;;;;;;12.18;11.57;;;;;;;;;;5046829;28;20496;-63
2023/04/25 03:39:49;;;;;;;13.88;13.07;;;;;;;;;;5047452;28;20021;-63
2023/04/25 03:42:14;;;;;;;14.10;13.30;;;;;;;;;;5051013;28;20577;-63
2023/04/25 03:44:40;;;;;;;14.23;13.43;;;;;;;;;;5048977;28;20017;-63
2023/04/25 03:47:05;;;;;;;14.90;14.00;;;;;;;;;;5042934;28;20032;-62
2023/04/25 03:49:32;;;;;;;13.90;13.10;;;;;;;;;;5049653;28;20078;-63
2023/04/25 03:51:58;;;;;;;14.70;13.80;;;;;;;;;;5048936;28;20028;-63
2023/04/25 03:54:23;;;;;;;12.52;11.93;;;;;;;;;;5052905;28;20366;-63
2023/04/25 03:56:48;;;;;;;14.30;13.50;;;;;;;;;;5042051;28;20040;-63
2023/04/25 03:59:14;;;;;;;14.00;13.25;;;;;;;;;;5054417;28;20480;-63
2023/04/25 04:01:39;;;;;;;13.95;13.15;;;;;;;;;;5047417;28;20109;-63
2023/04/25 04:04:04;;;;;;;13.32;12.63;;;;;;;;;;5049746;28;20078;-64
2023/04/25 04:06:31;;;;;;;13.93;13.13;;;;;;;;;;5049946;28;20095;-63
2023/04/25 04:08:56;;;;;;;13.07;12.38;;;;;;;;;;5051206;28;20036;-63
2023/04/25 04:11:22;;;;;;;13.88;13.07;;;;;;;;;;5048665;28;20025;-63
2023/04/25 04:13:47;;;;;;;13.00;12.30;;;;;;;;;;5049814;28;20024;-63
2023/04/25 04:16:12;;;;;;;13.32;12.63;;;;;;;;;;5047742;28;20025;-63
2023/04/25 04:18:38;;;;;;;13.05;12.35;;;;;;;;;;5047895;28;20032;-63
2023/04/25 04:21:03;;;;;;;12.98;12.27;;;;;;;;;;5046202;28;20020;-63
2023/04/25 04:23:28;;;;;;;14.52;13.65;;;;;;;;;;5049212;28;20095;-62
2023/04/25 04:25:54;;;;;;;13.38;12.68;;;;;;;;;;5055186;28;20024;-64
2023/04/25 04:28:20;;;;;;;13.23;12.52;;;;;;;;;;5052089;28;20021;-64
2023/04/25 04:30:45;;;;;;;13.02;12.32;;;;;;;;;;5052597;28;20086;-64
2023/04/25 04:33:11;;;;;;;12.43;11.82;;;;;;;;;;5050125;28;20095;-64
2023/04/25 04:35:37;;;;;;;13.93;13.15;;;;;;;;;;5044595;28;20473;-63
2023/04/25 04:38:02;;;;;;;14.05;13.25;;;;;;;;;;5054554;28;20143;-64
2023/04/25 04:40:28;;;;;;;14.50;13.70;;;;;;;;;;5048534;28;20480;-64
2023/04/25 04:42:56;;;;;;;12.70;12.10;;;;;;;;;;5046920;28;20370;-64
2023/04/25 04:45:22;;;;;;;12.50;11.90;;;;;;;;;;5042378;28;20546;-64
2023/04/25 04:47:48;;;;;;;12.55;11.95;;;;;;;;;;5044090;28;20033;-64
2023/04/25 04:50:14;;;;;;;12.68;12.07;;;;;;;;;;5047227;28;20051;-64
2023/04/25 04:52:40;;;;;;;12.90;12.30;;;;;;;;;;5052528;28;20035;-64
2023/04/25 04:55:06;;;;;;;12.65;12.05;;;;;;;;;;5049698;28;20032;-64
2023/04/25 04:57:32;;;;;;;12.80;12.20;;;;;;;;;;5048049;28;20100;-64
2023/04/25 04:59:58;;;;;;;13.00;12.38;;;;;;;;;;5049996;28;20041;-62
2023/04/25 05:02:24;;;;;;;16.15;15.25;;;;;;;;;;5040022;28;20064;-63
2023/04/25 05:04:50;;;;;;;13.27;12.60;;;;;;;;;;5041583;28;20557;-63
2023/04/25 05:07:15;;;;;;;12.90;12.30;;;;;;;;;;5044271;28;20039;-63
2023/04/25 05:09:40;;;;;;;13.02;12.43;;;;;;;;;;5049970;28;20017;-62
2023/04/25 05:12:06;;;;;;;13.25;12.60;;;;;;;;;;5043066;28;20288;-63
2023/04/25 05:14:31;;;;;;;14.35;13.55;;;;;;;;;;5037269;28;20025;-63
2023/04/25 05:16:58;;;;;;;14.70;13.90;;;;;;;;;;5051139;28;20029;-63
2023/04/25 05:19:23;;;;;;;14.38;13.57;;;;;;;;;;5048351;28;20189;-62
2023/04/25 05:21:49;;;;;;;12.95;12.35;;;;;;;;;;5052025;28;20021;-63
2023/04/25 05:24:14;;;;;;;13.20;12.50;;;;;;;;;;5046114;28;20029;-64
2023/04/25 05:26:40;;;;;;;12.85;12.25;;;;;;;;;;5044785;28;20083;-64
2023/04/25 05:29:05;;;;;;;13.02;12.32;;;;;;;;;;5047933;28;20437;-64
2023/04/25 05:31:31;;;;;;;12.40;11.80;;;;;;;;;;5040539;28;20039;-64
2023/04/25 05:33:57;;;;;;;13.50;12.80;;;;;;;;;;5044657;28;20100;-63
2023/04/25 05:36:22;;;;;;;12.25;11.65;;;;;;;;;;5042285;28;20028;-65
2023/04/25 05:38:47;;;;;;;12.57;11.98;;;;;;;;;;5043939;28;20542;-63
2023/04/25 05:41:12;;;;;;;12.00;11.45;;;;;;;;;;5042991;28;20546;-64
2023/04/25 05:43:38;;;;;;;12.43;11.82;;;;;;;;;;5032302;28;20395;-65
2023/04/25 05:46:03;;;;;;;12.50;11.90;;;;;;;;;;5048221;28;20529;-64
2023/04/25 05:48:28;;;;;;;11.90;11.40;;;;;;;;;;5046452;28;20029;-64
2023/04/25 05:50:54;;;;;;;12.90;12.30;;;;;;;;;;5050434;28;20021;-64
2023/04/25 05:53:20;;;;;;;12.70;12.10;;;;;;;;;;5047630;28;20025;-64
2023/04/25 05:55:46;;;;;;;13.05;12.45;;;;;;;;;;5052662;28;20064;-64
2023/04/25 05:58:11;;;;;;;12.73;12.13;;;;;;;;;;5044658;28;20472;-65
2023/04/25 06:00:37;;;;;;;12.50;11.90;;;;;;;;;;5047719;28;20056;-64
2023/04/25 06:03:02;;;;;;;12.85;12.25;;;;;;;;;;5044755;28;20064;-64
2023/04/25 06:05:27;;;;;;;12.38;11.80;;;;;;;;;;5044840;28;20029;-63
2023/04/25 06:07:53;;;;;;;12.93;12.32;;;;;;;;;;5039917;28;20393;-63
2023/04/25 06:10:18;;;;;;;12.55;11.95;;;;;;;;;;5040454;28;20049;-64
2023/04/25 06:12:44;;;;;;;15.30;14.60;;;;;;;;;;5034935;28;20111;-65
2023/04/25 06:15:10;;;;;;;13.98;13.27;;;;;;;;;;5041268;28;20021;-66
2023/04/25 06:17:35;;;;;;;13.88;13.27;;;;;;;;;;5043436;28;20537;-65
2023/04/25 06:20:01;;;;;;;13.38;12.77;;;;;;;;;;5048265;28;20069;-65
2023/04/25 06:22:26;;;;;;;12.60;12.00;;;;;;;;;;5050983;28;20025;-65
2023/04/25 06:24:52;;;;;;;12.82;12.23;;;;;;;;;;5046324;28;20025;-66
2023/04/25 06:27:17;;;;;;;13.32;12.73;;;;;;;;;;5055380;28;20439;-66
2023/04/25 06:29:42;;;;;;;12.95;12.35;;;;;;;;;;5051147;28;20391;-65
2023/04/25 06:32:08;;;;;;;13.40;12.80;;;;;;;;;;5044175;28;20052;-66
2023/04/25 06:34:33;;;;;;;12.68;12.07;;;;;;;;;;5041541;28;20025;-66
2023/04/25 06:36:58;;;;;;;13.55;12.90;;;;;;;;;;5043453;28;20078;-68
2023/04/25 06:39:25;;;;;;;13.68;12.98;;;;;;;;;;5036807;28;20021;-67
2023/04/25 06:41:50;;;;;;;13.73;13.02;;;;;;;;;;5031494;28;20112;-68
2023/04/25 06:44:16;;;;;;;13.65;12.95;;;;;;;;;;5044056;28;20178;-67
2023/04/25 06:46:41;;;;;;;13.60;12.90;;;;;;;;;;5041501;28;20036;-67
2023/04/25 06:49:07;;;;;;;14.50;13.70;;;;;;;;;;5028090;28;20026;-65
2023/04/25 06:51:32;;;;;;;13.70;13.00;;;;;;;;;;5040483;28;20078;-67
2023/04/25 06:53:57;;;;;;;14.32;13.52;;;;;;;;;;5038475;28;20499;-65
2023/04/25 06:56:23;;;;;;;14.98;14.18;;;;;;;;;;5052891;28;20070;-65
2023/04/25 06:58:48;;;;;;;14.13;13.32;;;;;;;;;;5045153;28;20483;-66
2023/04/25 07:01:14;;;;;;;15.50;14.60;;;;;;;;;;5041547;28;20197;-67
2023/04/25 07:03:39;;;;;;;14.55;13.75;;;;;;;;;;5050339;28;20017;-65
2023/04/25 07:06:05;;;;;;;14.43;13.63;;;;;;;;;;5045719;28;20016;-64
2023/04/25 07:08:30;;;;;;;15.45;14.55;;;;;;;;;;5050008;28;20032;-65
2023/04/25 07:10:55;;;;;;;14.57;13.77;;;;;;;;;;5042527;28;20053;-67
2023/04/25 07:13:21;;;;;;;13.68;12.98;;;;;;;;;;5053060;28;20025;-66
2023/04/25 07:15:47;;;;;;;14.32;13.52;;;;;;;;;;5051651;28;20021;-65
2023/04/25 07:18:13;;;;;;;14.13;13.32;;;;;;;;;;5052548;28;20459;-65
2023/04/25 07:20:38;;;;;;;16.05;15.05;;;;;;;;;;5048630;28;20035;-66
2023/04/25 07:23:03;;;;;;;14.07;13.27;;;;;;;;;;5053919;28;20589;-67
2023/04/25 07:25:30;;;;;;;14.05;13.25;;;;;;;;;;5052959;28;20028;-66
2023/04/25 07:27:55;;;;;;;13.75;12.95;;;;;;;;;;5050328;28;20387;-65
2023/04/25 07:30:21;;;;;;;13.95;13.15;;;;;;;;;;5054996;28;20016;-66
2023/04/25 07:32:46;;;;;;;13.82;13.02;;;;;;;;;;5052362;28;20025;-70
2023/04/25 07:35:12;;;;;;;13.93;13.13;;;;;;;;;;5042481;28;20048;-65
2023/04/25 07:37:37;;;;;;;13.80;13.00;;;;;;;;;;5052564;28;20020;-65
2023/04/25 07:40:03;;;;;;;12.68;12.07;;;;;;;;;;5053338;28;20012;-66
2023/04/25 07:42:29;;;;;;;13.40;12.70;;;;;;;;;;5055005;28;20020;-67
2023/04/25 07:44:54;;;;;;;13.30;12.60;;;;;;;;;;5039460;28;20048;-68
2023/04/25 07:47:20;;;;;;;14.05;13.25;;;;;;;;;;5046927;28;21033;-66
2023/04/25 07:49:45;;;;;;;13.65;12.95;;;;;;;;;;5045548;28;20437;-65
2023/04/25 07:52:11;;;;;;;13.85;13.05;;;;;;;;;;5048687;28;20033;-65
2023/04/25 07:54:36;;;;;;;13.23;12.52;;;;;;;;;;5046347;28;20036;-68
2023/04/25 07:57:02;;;;;;;14.48;13.68;;;;;;;;;;5046103;28;20036;-67
2023/04/25 07:59:27;;;;;;;13.82;13.02;;;;;;;;;;5047498;28;20071;-64
2023/04/25 08:01:53;;;;;;;15.82;14.85;;;;;;;;;;5043824;28;20057;-66
2023/04/25 08:04:18;;;;;;;13.73;12.95;;;;;;;;;;5047845;28;20087;-65
2023/04/25 08:06:43;;;;;;;14.07;13.27;;;;;;;;;;5043145;28;20068;-66
2023/04/25 08:09:09;;;;;;;13.68;12.93;;;;;;;;;;5050463;28;20050;-65
2023/04/25 08:11:35;;;;;;;13.60;12.88;;;;;;;;;;5057759;28;20082;-64
2023/04/25 08:14:00;;;;;;;14.18;13.38;;;;;;;;;;5050583;28;20029;-65
2023/04/25 08:16:25;;;;;;;13.13;12.43;;;;;;;;;;5037221;28;20028;-66
2023/04/25 08:18:51;;;;;;;13.45;12.75;;;;;;;;;;5048510;28;20040;-65
2023/04/25 08:21:16;;;;;;;14.00;13.20;;;;;;;;;;5054231;28;20095;-66
2023/04/25 08:23:41;;;;;;;14.18;13.38;;;;;;;;;;5056457;28;20166;-64
2023/04/25 08:26:06;;;;;;;15.35;14.35;;;;;;;;;;5045634;28;20029;-68
2023/04/25 08:28:32;;;;;;;12.75;12.13;;;;;;;;;;5046142;28;20047;-68
2023/04/25 08:30:57;;;;;;;14.48;13.63;;;;;;;;;;5050385;28;20045;-68
2023/04/25 08:33:23;;;;;;;14.77;13.88;;;;;;;;;;5033659;28;20033;-65
2023/04/25 08:35:48;;;;;;;13.88;13.07;;;;;;;;;;5044983;28;20498;-66
2023/04/25 08:38:13;;;;;;;13.77;13.00;;;;;;;;;;5044437;28;20065;-66
2023/04/25 08:40:39;;;;;;;12.82;12.13;;;;;;;;;;5054804;28;20107;-64
2023/04/25 08:43:11;;;;;;;13.70;12.95;;;;;;;;;;5055791;28;20029;-63
2023/04/25 08:45:38;;;;;;;14.43;13.63;;;;;;;;;;5047013;28;20025;-63
2023/04/25 08:48:04;;;;;;;13.88;13.07;;;;;;;;;;5051378;28;20088;-63
2023/04/25 08:50:30;;;;;;;13.35;12.65;;;;;;;;;;5050791;28;20168;-64
2023/04/25 08:53:01;;;;;;;14.48;13.65;;;;;;;;;;5051896;28;20501;-64
2023/04/25 08:55:27;;;;;;;12.65;11.95;;;;;;;;;;5042420;28;20025;-63
2023/04/25 08:57:54;;;;;;;14.40;13.57;;;;;;;;;;5085314;28;20095;-63
2023/04/25 09:00:20;;;;;;;16.00;15.00;;;;;;;;;;5050248;28;20161;-64
2023/04/25 09:02:46;;;;;;;14.82;13.93;;;;;;;;;;5052543;28;20119;-64
2023/04/25 09:05:13;;;;;;;14.50;13.68;;;;;;;;;;5048852;28;20029;-65
2023/04/25 09:07:38;;;;;;;14.75;13.88;;;;;;;;;;5050666;28;20016;-63
2023/04/25 09:10:04;;;;;;;13.90;13.10;;;;;;;;;;5043427;28;20495;-62
2023/04/25 09:12:30;;;;;;;13.32;12.63;;;;;;;;;;5046433;28;20103;-63
2023/04/25 09:15:01;;;;;;;15.40;14.50;;;;;;;;;;5046622;28;20079;-63
2023/04/25 09:17:28;;;;;;;13.93;13.13;;;;;;;;;;5046146;28;20024;-64
2023/04/25 09:19:54;;;;;;;13.43;12.73;;;;;;;;;;5052785;28;20108;-64
2023/04/25 09:22:22;;;;;;;14.13;13.32;;;;;;;;;;5048811;28;20090;-64
2023/04/25 09:24:48;;;;;;;15.15;14.25;;;;;;;;;;5044843;28;20098;-63
2023/04/25 09:27:18;;;;;;;14.73;13.82;;;;;;;;;;5046724;28;20048;-64
2023/04/25 09:29:44;;;;;;;13.63;12.85;;;;;;;;;;5052295;28;20019;-70
2023/04/25 09:32:15;;;;;;;15.23;14.32;;;;;;;;;;5042292;28;20029;-73
2023/04/25 09:34:41;;;;;;;14.52;13.68;;;;;;;;;;5047090;28;20464;-72
2023/04/25 09:37:08;;;;;;;15.00;14.10;;;;;;;;;;5044986;28;20507;-66
2023/04/25 09:39:34;;;;;;;14.13;13.32;;;;;;;;;;5037354;28;20090;-71
2023/04/25 09:42:00;;;;;;;14.95;14.05;;;;;;;;;;5045114;28;20033;-67
2023/04/25 09:44:26;;;;;;;13.77;12.98;;;;;;;;;;5042638;28;20023;-63
2023/04/25 09:46:53;;;;;;;12.55;11.93;;;;;;;;;;5045237;28;20029;-64
2023/04/25 09:49:20;;;;;;;14.32;13.50;;;;;;;;;;5037859;28;20543;-62
2023/04/25 09:51:56;;;;;;;14.90;14.00;;;;;;;;;;5030381;28;20045;-64
2023/04/25 09:54:21;;;;;;;15.32;14.40;;;;;;;;;;5043458;28;20021;-64
2023/04/25 09:56:48;;;;;;;13.85;13.05;;;;;;;;;;5051704;28;20116;-64
2023/04/25 09:59:14;;;;;;;15.07;14.18;;;;;;;;;;5055298;28;20080;-64
2023/04/25 10:01:41;;;;;;;15.32;14.35;;;;;;;;;;5054056;28;20132;-65
2023/04/25 10:04:09;;;;;;;14.68;13.77;;;;;;;;;;5034326;28;20067;-65
2023/04/25 10:06:34;;;;;;;14.02;13.23;;;;;;;;;;5054858;28;20086;-64
2023/04/25 10:09:00;;;;;;;13.85;13.05;;;;;;;;;;5042557;28;20060;-65
2023/04/25 10:11:26;;;;;;;14.05;13.25;;;;;;;;;;5050625;28;20021;-66
2023/04/25 10:13:52;;;;;;;15.50;14.50;;;;;;;;;;5034623;28;20037;-64
2023/04/25 10:16:17;;;;;;;17.58;16.38;;;;;;;;;;5035640;28;20047;-65
2023/04/25 10:18:45;;;;;;;14.23;13.43;;;;;;;;;;5039094;28;20025;-65
2023/04/25 10:21:10;;;;;;;13.23;12.52;;;;;;;;;;5040034;28;20025;-64
2023/04/25 10:23:36;;;;;;;12.95;12.25;;;;;;;;;;5038122;28;20021;-64
2023/04/25 10:26:02;;;;;;;14.80;13.90;;;;;;;;;;5049981;28;20156;-63
2023/04/25 10:28:28;;;;;;;14.35;13.55;;;;;;;;;;5046403;28;20099;-64
2023/04/25 10:31:04;;;;;;;14.73;13.82;;;;;;;;;;5052564;28;20108;-64
2023/04/25 10:33:34;;;;;;;13.70;12.90;;;;;;;;;;5046882;28;20084;-64
2023/04/25 10:36:08;;;;;;;14.18;13.38;;;;;;;;;;5056155;28;20055;-64
2023/04/25 10:38:33;;;;;;;15.07;14.18;;;;;;;;;;5047589;28;20044;-64
2023/04/25 10:41:08;;;;;;;13.98;13.18;;;;;;;;;;5042165;28;20457;-65
2023/04/25 10:43:33;;;;;;;14.07;13.27;;;;;;;;;;5047305;28;20048;-63
2023/04/25 10:46:01;;;;;;;14.52;13.63;;;;;;;;;;5037385;28;20140;-64
2023/04/25 10:48:27;;;;;;;13.77;13.00;;;;;;;;;;5047830;28;20103;-66
2023/04/25 10:51:08;;;;;;;14.80;13.90;;;;;;;;;;5043997;28;20167;-64
2023/04/25 10:53:34;;;;;;;14.73;13.82;;;;;;;;;;5043231;28;20017;-64
2023/04/25 10:55:59;;;;;;;14.90;14.00;;;;;;;;;;5043737;28;20081;-64
2023/04/25 10:58:24;;;;;;;13.80;13.00;;;;;;;;;;5042834;28;20040;-64
2023/04/25 11:00:50;;;;;;;15.38;14.38;;;;;;;;;;5048407;28;20045;-64
2023/04/25 11:03:16;;;;;;;15.00;14.07;;;;;;;;;;5046530;28;20399;-64
2023/04/25 11:05:43;;;;;;;15.70;14.70;;;;;;;;;;5040489;28;20806;-64
2023/04/25 11:08:11;;;;;;;15.77;14.77;;;;;;;;;;5033430;28;20048;-64
2023/04/25 11:10:39;;;;;;;15.30;14.32;;;;;;;;;;5042285;28;20471;-65
2023/04/25 11:13:05;;;;;;;14.90;14.00;;;;;;;;;;5040608;28;20032;-64
2023/04/25 11:15:30;;;;;;;14.10;13.30;;;;;;;;;;5053721;28;20028;-63
2023/04/25 11:17:55;;;;;;;16.13;15.05;;;;;;;;;;5044414;28;20040;-64
2023/04/25 11:20:21;;;;;;;13.70;12.90;;;;;;;;;;5053676;28;20029;-66
2023/04/25 11:22:47;;;;;;;14.93;14.02;;;;;;;;;;5049147;28;20074;-62
2023/04/25 11:25:13;;;;;;;14.93;14.02;;;;;;;;;;5041855;28;20017;-64
2023/04/25 11:27:50;;;;;;;14.93;14.02;;;;;;;;;;5050748;28;20100;-64
2023/04/25 11:30:15;;;;;;;13.75;12.95;;;;;;;;;;5045904;28;20091;-64
2023/04/25 11:32:42;;;;;;;14.75;13.85;;;;;;;;;;5041243;28;20579;-64
2023/04/25 11:35:07;;;;;;;14.23;13.38;;;;;;;;;;5036972;28;20029;-65
2023/04/25 11:37:34;;;;;;;13.95;13.15;;;;;;;;;;5052799;28;20385;-65
2023/04/25 11:40:00;;;;;;;14.77;13.88;;;;;;;;;;5049549;28;20082;-61
2023/04/25 11:42:25;;;;;;;14.15;13.32;;;;;;;;;;5040824;28;20115;-64
2023/04/25 11:44:51;;;;;;;15.80;14.75;;;;;;;;;;5044615;28;20124;-64
2023/04/25 11:47:16;;;;;;;14.18;13.32;;;;;;;;;;5045500;28;20535;-65
2023/04/25 11:49:41;;;;;;;14.43;13.52;;;;;;;;;;5036642;28;20060;-65
2023/04/25 11:52:07;;;;;;;14.20;13.38;;;;;;;;;;5048219;28;20025;-65
2023/04/25 11:54:35;;;;;;;13.90;13.10;;;;;;;;;;5046440;28;20385;-63
2023/04/25 11:57:01;;;;;;;13.32;12.63;;;;;;;;;;5039546;28;20483;-65
2023/04/25 11:59:26;;;;;;;14.68;13.77;;;;;;;;;;5036892;28;20060;-65
2023/04/25 12:01:52;;;;;;;15.10;14.15;;;;;;;;;;5042342;28;20385;-63
2023/04/25 12:04:20;;;;;;;13.88;13.07;;;;;;;;;;5040654;28;20052;-63
2023/04/25 12:06:49;;;;;;;14.52;13.63;;;;;;;;;;5055740;28;20415;-64
2023/04/25 12:09:15;;;;;;;13.52;12.75;;;;;;;;;;5051757;28;20020;-66
2023/04/25 12:11:45;;;;;;;14.70;13.80;;;;;;;;;;5044910;28;20024;-63
2023/04/25 12:14:21;;;;;;;14.70;13.80;;;;;;;;;;5049433;28;20411;-65
2023/04/25 12:16:48;;;;;;;13.80;13.00;;;;;;;;;;5045159;28;20446;-64
2023/04/25 12:19:15;;;;;;;13.98;13.18;;;;;;;;;;5050643;28;20083;-64
2023/04/25 12:21:40;;;;;;;13.63;12.82;;;;;;;;;;5041277;28;20446;-65
2023/04/25 12:24:38;;;;;;;13.90;13.10;;;;;;;;;;5052933;28;20021;-67
2023/04/25 12:27:04;;;;;;;14.63;13.73;;;;;;;;;;5037973;28;20068;-65
2023/04/25 12:29:31;;;;;;;15.48;14.50;;;;;;;;;;5045896;28;20025;-62
2023/04/25 12:31:56;;;;;;;13.98;13.18;;;;;;;;;;5041507;28;20024;-62
2023/04/25 12:34:22;;;;;;;13.98;13.18;;;;;;;;;;5051367;28;20012;-63
2023/04/25 12:36:48;;;;;;;13.98;13.18;;;;;;;;;;5062811;28;20110;-62
2023/04/25 12:39:17;;;;;;;13.13;12.43;;;;;;;;;;5055444;28;20079;-62
2023/04/25 12:41:43;;;;;;;12.98;12.27;;;;;;;;;;5055051;28;20024;-61
2023/04/25 12:44:08;;;;;;;13.80;13.00;;;;;;;;;;5049416;28;20032;-61
2023/04/25 12:46:33;;;;;;;13.73;12.93;;;;;;;;;;5041692;28;20029;-66
2023/04/25 12:49:00;;;;;;;14.55;13.65;;;;;;;;;;5057200;28;20021;-65
2023/04/25 12:51:27;;;;;;;14.35;13.50;;;;;;;;;;5056147;28;20029;-64
2023/04/25 12:53:52;;;;;;;15.05;14.15;;;;;;;;;;5043709;28;20029;-63
2023/04/25 12:56:18;;;;;;;14.13;13.32;;;;;;;;;;5049433;28;20047;-64
2023/04/25 12:58:44;;;;;;;14.32;13.50;;;;;;;;;;5040257;28;20063;-64
2023/04/25 13:01:09;;;;;;;14.88;13.98;;;;;;;;;;5040106;28;20518;-64
2023/04/25 13:03:34;;;;;;;13.77;12.98;;;;;;;;;;5041657;28;20016;-64
2023/04/25 13:06:00;;;;;;;14.05;13.25;;;;;;;;;;5039137;28;20040;-64
2023/04/25 13:08:26;;;;;;;14.60;13.73;;;;;;;;;;5049883;28;20033;-64
2023/04/25 13:10:51;;;;;;;14.90;14.00;;;;;;;;;;5030783;28;20434;-65
2023/04/25 13:13:16;;;;;;;14.90;14.00;;;;;;;;;;5048303;28;20559;-65
2023/04/25 13:15:42;;;;;;;14.05;13.25;;;;;;;;;;5045012;28;20047;-65
2023/04/25 13:18:07;;;;;;;13.20;12.50;;;;;;;;;;5054020;28;20047;-62
2023/04/25 13:20:33;;;;;;;12.77;12.10;;;;;;;;;;5041044;28;20067;-63
2023/04/25 13:22:58;;;;;;;13.10;12.40;;;;;;;;;;5042196;28;20392;-63
2023/04/25 13:25:23;;;;;;;13.15;12.45;;;;;;;;;;5053466;28;20031;-63
2023/04/25 13:27:49;;;;;;;14.07;13.27;;;;;;;;;;5043615;28;20056;-65
2023/04/25 13:30:14;;;;;;;12.93;12.23;;;;;;;;;;5047088;28;20025;-65
2023/04/25 13:32:40;;;;;;;13.23;12.52;;;;;;;;;;5049171;28;20041;-64
2023/04/25 13:35:07;;;;;;;14.23;13.43;;;;;;;;;;5044007;28;20024;-63
2023/04/25 13:37:32;;;;;;;16.52;15.43;;;;;;;;;;5036410;28;20028;-64
2023/04/25 13:40:02;;;;;;;16.33;15.23;;;;;;;;;;5037595;28;20763;-64
2023/04/25 13:42:28;;;;;;;14.55;13.65;;;;;;;;;;5044734;28;20130;-62
2023/04/25 13:44:53;;;;;;;14.73;13.82;;;;;;;;;;5043559;28;20024;-66
2023/04/25 13:47:18;;;;;;;13.90;13.10;;;;;;;;;;5047199;28;20104;-65
2023/04/25 13:49:44;;;;;;;13.70;12.90;;;;;;;;;;5046621;28;20025;-65
2023/04/25 13:52:09;;;;;;;15.13;14.18;;;;;;;;;;5034231;28;20067;-64
2023/04/25 13:54:35;;;;;;;16.40;15.30;;;;;;;;;;5038920;28;20046;-66
2023/04/25 13:57:01;;;;;;;15.65;14.65;;;;;;;;;;5040154;28;20021;-66
2023/04/25 13:59:27;;;;;;;15.73;14.73;;;;;;;;;;5040270;28;20094;-65
2023/04/25 14:01:52;;;;;;;15.20;14.27;;;;;;;;;;5037250;28;20075;-65
2023/04/25 14:04:17;;;;;;;14.15;13.32;;;;;;;;;;5043464;28;20068;-66
2023/04/25 14:06:43;;;;;;;13.95;13.15;;;;;;;;;;5041465;28;20048;-67
2023/04/25 14:09:10;;;;;;;14.10;13.30;;;;;;;;;;5036579;28;20040;-67